• Join FlightAware (Why Join?)
  • Login
  • US Flag 
11:18AM EDT


 

Airport Tracker/Info


-or-


 

Live Flight TrackerFlight Track Log ✈ THY1078 ✈ 01-Jul-2013 ✈ LATI / TIA - LTBA / IST

Flight Track Log - Related Links

Times and Time Zones

All times are in EDT time to prevent confusion due to time zone crossing. See the THY1078 flight status page for this flight to view local times or setup timezone preferences in your user account.

Time Position Orientation Groundspeed Altitude Reporting Facility
EDT Latitude Longitude Course Direction KTS MPH feet Rate Location/Type
02:54PM 41.3800 21.7353 91° East  Level Estimated
02:55PM 41.3764 21.8695 92° East  Level Estimated
02:56PM 41.3727 22.0037 92° East  Level Estimated
02:57PM 41.3689 22.1379 92° East  Level Estimated
02:58PM 41.3648 22.2721 92° East  Level Estimated
02:59PM 41.3606 22.4062 92° East  Level Estimated
03:00PM 41.3563 22.5404 92° East  Level Estimated
03:01PM 41.3518 22.6745 93° East  Level Estimated
03:02PM 41.3471 22.8086 93° East  Level Estimated
03:03PM 41.3423 22.9427 93° East  Level Estimated
03:04PM 41.3373 23.0787 93° East  Level Estimated
03:05PM 41.3321 23.2148 93° East  Level Estimated
03:06PM 41.3267 23.3508 93° East  Level Estimated
03:07PM 41.3212 23.4868 93° East  Level Estimated
03:08PM 41.3155 23.6228 93° East  Level Estimated
03:09PM 41.3097 23.7587 93° East  Level Estimated
03:10PM 41.3037 23.8946 93° East  Level Estimated
03:11PM 41.2975 24.0306 93° East  Level Estimated
03:12PM 41.2912 24.1664 93° East  Level Estimated
03:13PM 41.2847 24.3023 94° East  Level Estimated
03:14PM 41.2781 24.4381 94° East  Level Estimated
03:15PM 41.2713 24.5739 94° East  Level Estimated
03:16PM 41.2643 24.7097 94° East  Level Estimated
03:17PM 41.2572 24.8454 94° East  Level Estimated
03:18PM 41.2499 24.9811 94° East  Level Estimated
03:19PM 41.2425 25.1168 94° East  Level Estimated
03:20PM 41.2349 25.2524 94° East  Level Estimated
03:21PM 41.2271 25.3880 94° East  Level Estimated
03:22PM 41.2192 25.5236 94° East  Level Estimated
03:23PM 41.2111 25.6591 94° East  Level Estimated
03:24PM 41.2029 25.7947 95° East  Level Estimated
03:25PM 41.1945 25.9301 95° East  Level Estimated
03:26PM 41.1860 26.0656 95° East  Level Estimated
03:27PM 41.1772 26.2010 95° East  Level Estimated
03:28PM 41.1684 26.3364 95° East  Level Estimated
03:29PM 41.1593 26.4717 95° East  Level Estimated
03:30PM 41.1502 26.6070 95° East  Level Estimated
03:31PM 41.1408 26.7423 95° East  Level Estimated
03:32PM 41.1313 26.8775 95° East  Level Estimated
03:33PM 41.1217 27.0126 95° East  Level Estimated
03:34PM 41.1118 27.1478 95° East  Level Estimated
03:35PM 41.1018 27.2829 96° East  Level Estimated
03:36PM 41.0917 27.4179 96° East  Level Estimated
03:37PM 41.0814 27.5530 96° East  Level Estimated
03:38PM 41.0710 27.6879 96° East  Level Estimated
03:39PM 41.0604 27.8229 96° East  Level Estimated
03:40PM 41.0496 27.9578 96° East  Level Estimated
03:41PM 41.0387 28.0926 96° East  Level Estimated
03:42PM 41.0276 28.2274 96° East  Level Estimated
03:43PM 41.0164 28.3622 96° East  Level Estimated
03:44PM 41.0050 28.4968 96° East  Level Estimated
03:45PM 40.9934 28.6315 96° East  Level Estimated
03:46PM 40.9817 28.7661 97° East  Level Estimated
03:47PM 40.9769 28.8211 97° East  Level Estimated
03:48PM 40.9769 28.8211 21° North  Level Estimated
03:49PM 40.9769 28.8211 21° North  Level Estimated
03:50PM 40.9769 28.8211 21° North  Level Estimated
03:51PM 40.9769 28.8211 21° North  Level Estimated
03:52PM 40.9769 28.8211 21° North  Level Estimated
03:53PM 40.9769 28.8211 21° North  Level Estimated
03:54PM 40.9769 28.8211 21° North  Level Estimated
03:55PM 40.9769 28.8211 21° North  Level Estimated
03:56PM 40.9769 28.8211 21° North  Level Estimated
03:57PM 40.9769 28.8211 21° North  Level Estimated
03:58PM 40.9769 28.8211 21° North  Level Estimated
03:59PM 40.9769 28.8211 21° North  Level Estimated
04:00PM 40.9769 28.8211 21° North  Level Estimated
04:01PM 40.9769 28.8211 21° North  Level Estimated
04:02PM 40.9769 28.8211 21° North  Level Estimated